sensor_id;sensor_type;location;lat;lon;timestamp;P1;durP1;ratioP1;P2;durP2;ratioP2
1589;SDS011;788;48.720;9.158;2022-10-19T00:01:22;13.87;;;10.23;;
1589;SDS011;788;48.720;9.158;2022-10-19T00:03:52;11.23;;;10.10;;
1589;SDS011;788;48.720;9.158;2022-10-19T00:06:22;11.50;;;10.40;;
1589;SDS011;788;48.720;9.158;2022-10-19T00:08:50;10.40;;;8.77;;
1589;SDS011;788;48.720;9.158;2022-10-19T00:11:18;14.93;;;11.83;;
1589;SDS011;788;48.720;9.158;2022-10-19T00:13:45;11.53;;;10.33;;
1589;SDS011;788;48.720;9.158;2022-10-19T00:16:13;10.53;;;9.23;;
1589;SDS011;788;48.720;9.158;2022-10-19T00:18:41;9.70;;;8.80;;
1589;SDS011;788;48.720;9.158;2022-10-19T00:21:09;11.93;;;9.80;;
1589;SDS011;788;48.720;9.158;2022-10-19T00:23:38;9.47;;;8.70;;
1589;SDS011;788;48.720;9.158;2022-10-19T00:26:05;12.63;;;9.73;;
1589;SDS011;788;48.720;9.158;2022-10-19T00:28:32;11.10;;;9.97;;
1589;SDS011;788;48.720;9.158;2022-10-19T00:31:00;11.37;;;10.27;;
1589;SDS011;788;48.720;9.158;2022-10-19T00:33:28;11.07;;;9.40;;
1589;SDS011;788;48.720;9.158;2022-10-19T00:35:55;9.43;;;8.60;;
1589;SDS011;788;48.720;9.158;2022-10-19T00:38:22;10.43;;;9.30;;
1589;SDS011;788;48.720;9.158;2022-10-19T00:40:50;10.77;;;8.57;;
1589;SDS011;788;48.720;9.158;2022-10-19T00:43:17;10.87;;;9.77;;
1589;SDS011;788;48.720;9.158;2022-10-19T00:45:45;10.63;;;9.67;;
1589;SDS011;788;48.720;9.158;2022-10-19T00:48:13;11.27;;;9.73;;
1589;SDS011;788;48.720;9.158;2022-10-19T00:50:44;10.17;;;8.03;;
1589;SDS011;788;48.720;9.158;2022-10-19T00:53:12;11.53;;;9.13;;
1589;SDS011;788;48.720;9.158;2022-10-19T00:55:40;10.80;;;9.73;;
1589;SDS011;788;48.720;9.158;2022-10-19T00:58:08;10.33;;;9.07;;
1589;SDS011;788;48.720;9.158;2022-10-19T01:00:35;8.80;;;7.90;;
1589;SDS011;788;48.720;9.158;2022-10-19T01:03:02;9.80;;;8.80;;
1589;SDS011;788;48.720;9.158;2022-10-19T01:05:31;15.50;;;9.20;;
1589;SDS011;788;48.720;9.158;2022-10-19T01:07:59;14.03;;;10.47;;
1589;SDS011;788;48.720;9.158;2022-10-19T01:10:28;9.50;;;8.60;;
1589;SDS011;788;48.720;9.158;2022-10-19T01:13:05;17.23;;;9.87;;
1589;SDS011;788;48.720;9.158;2022-10-19T01:15:45;11.63;;;9.70;;
1589;SDS011;788;48.720;9.158;2022-10-19T01:18:20;11.10;;;10.00;;
1589;SDS011;788;48.720;9.158;2022-10-19T01:20:57;12.70;;;10.13;;
1589;SDS011;788;48.720;9.158;2022-10-19T01:23:45;16.00;;;10.37;;
1589;SDS011;788;48.720;9.158;2022-10-19T01:26:56;23.57;;;12.57;;
1589;SDS011;788;48.720;9.158;2022-10-19T01:29:57;27.47;;;15.03;;
1589;SDS011;788;48.720;9.158;2022-10-19T01:35:49;26.50;;;16.30;;
1589;SDS011;788;48.720;9.158;2022-10-19T01:38:22;24.67;;;16.70;;
1589;SDS011;788;48.720;9.158;2022-10-19T01:40:55;23.23;;;16.70;;
1589;SDS011;788;48.720;9.158;2022-10-19T01:43:31;22.87;;;15.00;;
1589;SDS011;788;48.720;9.158;2022-10-19T01:46:05;27.90;;;15.87;;
1589;SDS011;788;48.720;9.158;2022-10-19T01:48:38;31.60;;;17.50;;
1589;SDS011;788;48.720;9.158;2022-10-19T01:51:10;21.87;;;15.53;;
1589;SDS011;788;48.720;9.158;2022-10-19T01:53:43;22.77;;;16.90;;
1589;SDS011;788;48.720;9.158;2022-10-19T01:56:14;26.70;;;17.20;;
1589;SDS011;788;48.720;9.158;2022-10-19T01:58:45;23.37;;;16.77;;
1589;SDS011;788;48.720;9.158;2022-10-19T02:01:14;27.10;;;19.23;;
1589;SDS011;788;48.720;9.158;2022-10-19T02:03:45;28.90;;;19.30;;
1589;SDS011;788;48.720;9.158;2022-10-19T02:06:12;37.93;;;19.33;;
1589;SDS011;788;48.720;9.158;2022-10-19T02:08:41;56.07;;;19.97;;
1589;SDS011;788;48.720;9.158;2022-10-19T02:11:11;22.60;;;15.17;;
1589;SDS011;788;48.720;9.158;2022-10-19T02:13:38;29.80;;;17.00;;
1589;SDS011;788;48.720;9.158;2022-10-19T02:16:08;26.13;;;15.70;;
1589;SDS011;788;48.720;9.158;2022-10-19T02:18:41;26.53;;;14.90;;
1589;SDS011;788;48.720;9.158;2022-10-19T02:21:12;21.20;;;14.30;;
1589;SDS011;788;48.720;9.158;2022-10-19T02:23:39;52.63;;;17.60;;
1589;SDS011;788;48.720;9.158;2022-10-19T02:26:06;52.70;;;18.97;;
1589;SDS011;788;48.720;9.158;2022-10-19T02:28:33;52.77;;;21.93;;
1589;SDS011;788;48.720;9.158;2022-10-19T02:31:01;73.27;;;20.67;;
1589;SDS011;788;48.720;9.158;2022-10-19T02:33:28;84.97;;;26.87;;
1589;SDS011;788;48.720;9.158;2022-10-19T02:35:57;92.93;;;24.00;;
1589;SDS011;788;48.720;9.158;2022-10-19T02:38:25;89.57;;;26.97;;
1589;SDS011;788;48.720;9.158;2022-10-19T02:44:15;44.37;;;21.57;;
1589;SDS011;788;48.720;9.158;2022-10-19T02:46:47;46.67;;;22.27;;
1589;SDS011;788;48.720;9.158;2022-10-19T02:49:17;80.60;;;28.70;;
1589;SDS011;788;48.720;9.158;2022-10-19T02:51:56;40.73;;;23.43;;
1589;SDS011;788;48.720;9.158;2022-10-19T02:54:25;87.23;;;29.77;;
1589;SDS011;788;48.720;9.158;2022-10-19T02:56:52;63.03;;;25.67;;
1589;SDS011;788;48.720;9.158;2022-10-19T02:59:19;45.70;;;22.17;;
1589;SDS011;788;48.720;9.158;2022-10-19T03:01:46;58.23;;;24.60;;
1589;SDS011;788;48.720;9.158;2022-10-19T03:04:13;33.07;;;19.73;;
1589;SDS011;788;48.720;9.158;2022-10-19T03:06:40;55.63;;;26.60;;
1589;SDS011;788;48.720;9.158;2022-10-19T03:09:08;30.53;;;20.97;;
1589;SDS011;788;48.720;9.158;2022-10-19T03:11:35;71.67;;;26.23;;
1589;SDS011;788;48.720;9.158;2022-10-19T03:14:02;40.90;;;23.93;;
1589;SDS011;788;48.720;9.158;2022-10-19T03:16:28;54.90;;;25.20;;
1589;SDS011;788;48.720;9.158;2022-10-19T03:18:55;103.43;;;30.13;;
1589;SDS011;788;48.720;9.158;2022-10-19T03:21:22;90.70;;;28.30;;
1589;SDS011;788;48.720;9.158;2022-10-19T03:23:49;98.60;;;30.80;;
1589;SDS011;788;48.720;9.158;2022-10-19T03:26:17;79.43;;;28.57;;
1589;SDS011;788;48.720;9.158;2022-10-19T03:28:44;49.33;;;25.97;;
1589;SDS011;788;48.720;9.158;2022-10-19T03:31:11;50.67;;;26.80;;
1589;SDS011;788;48.720;9.158;2022-10-19T03:33:37;77.10;;;26.10;;
1589;SDS011;788;48.720;9.158;2022-10-19T03:36:14;55.80;;;24.60;;
1589;SDS011;788;48.720;9.158;2022-10-19T03:38:42;104.53;;;33.00;;
1589;SDS011;788;48.720;9.158;2022-10-19T03:41:09;81.07;;;27.63;;
1589;SDS011;788;48.720;9.158;2022-10-19T03:43:37;53.43;;;23.77;;
1589;SDS011;788;48.720;9.158;2022-10-19T03:46:05;71.70;;;26.67;;
1589;SDS011;788;48.720;9.158;2022-10-19T03:48:32;43.07;;;26.90;;
1589;SDS011;788;48.720;9.158;2022-10-19T03:50:59;44.83;;;26.80;;
1589;SDS011;788;48.720;9.158;2022-10-19T03:53:26;68.60;;;28.30;;
1589;SDS011;788;48.720;9.158;2022-10-19T03:55:59;76.07;;;30.80;;
1589;SDS011;788;48.720;9.158;2022-10-19T03:58:27;82.30;;;28.97;;
1589;SDS011;788;48.720;9.158;2022-10-19T04:00:55;62.53;;;26.57;;
1589;SDS011;788;48.720;9.158;2022-10-19T04:03:22;77.80;;;28.47;;
1589;SDS011;788;48.720;9.158;2022-10-19T04:05:49;79.63;;;29.07;;
1589;SDS011;788;48.720;9.158;2022-10-19T04:08:16;109.27;;;32.50;;
1589;SDS011;788;48.720;9.158;2022-10-19T04:10:42;51.23;;;22.87;;
1589;SDS011;788;48.720;9.158;2022-10-19T04:13:09;83.27;;;29.47;;
1589;SDS011;788;48.720;9.158;2022-10-19T04:15:36;95.70;;;27.40;;
1589;SDS011;788;48.720;9.158;2022-10-19T04:18:04;63.60;;;27.57;;
1589;SDS011;788;48.720;9.158;2022-10-19T04:20:31;44.57;;;23.93;;
1589;SDS011;788;48.720;9.158;2022-10-19T04:22:58;39.50;;;23.27;;
1589;SDS011;788;48.720;9.158;2022-10-19T04:25:24;32.83;;;19.97;;
1589;SDS011;788;48.720;9.158;2022-10-19T04:27:51;35.07;;;22.37;;
1589;SDS011;788;48.720;9.158;2022-10-19T04:30:18;34.30;;;22.63;;
1589;SDS011;788;48.720;9.158;2022-10-19T04:32:45;33.83;;;22.00;;
1589;SDS011;788;48.720;9.158;2022-10-19T04:35:13;34.63;;;21.00;;
1589;SDS011;788;48.720;9.158;2022-10-19T04:37:40;32.10;;;22.43;;
1589;SDS011;788;48.720;9.158;2022-10-19T04:40:07;30.53;;;21.00;;
1589;SDS011;788;48.720;9.158;2022-10-19T04:42:35;30.47;;;21.50;;
1589;SDS011;788;48.720;9.158;2022-10-19T04:45:02;31.03;;;22.60;;
1589;SDS011;788;48.720;9.158;2022-10-19T04:47:29;32.57;;;21.80;;
1589;SDS011;788;48.720;9.158;2022-10-19T04:49:56;29.50;;;22.10;;
1589;SDS011;788;48.720;9.158;2022-10-19T04:52:24;30.27;;;22.10;;
1589;SDS011;788;48.720;9.158;2022-10-19T04:54:51;28.10;;;22.80;;
1589;SDS011;788;48.720;9.158;2022-10-19T04:57:18;30.33;;;23.03;;
1589;SDS011;788;48.720;9.158;2022-10-19T04:59:45;29.43;;;21.80;;
1589;SDS011;788;48.720;9.158;2022-10-19T05:02:12;27.20;;;21.57;;
1589;SDS011;788;48.720;9.158;2022-10-19T05:04:39;30.17;;;23.87;;
1589;SDS011;788;48.720;9.158;2022-10-19T05:07:06;30.70;;;24.43;;
1589;SDS011;788;48.720;9.158;2022-10-19T05:09:35;35.63;;;24.57;;
1589;SDS011;788;48.720;9.158;2022-10-19T05:12:04;42.40;;;25.83;;
1589;SDS011;788;48.720;9.158;2022-10-19T05:14:31;30.00;;;24.00;;
1589;SDS011;788;48.720;9.158;2022-10-19T05:16:58;36.10;;;22.60;;
1589;SDS011;788;48.720;9.158;2022-10-19T05:19:25;31.20;;;23.40;;
1589;SDS011;788;48.720;9.158;2022-10-19T05:21:52;43.53;;;24.57;;
1589;SDS011;788;48.720;9.158;2022-10-19T05:24:19;40.70;;;24.73;;
1589;SDS011;788;48.720;9.158;2022-10-19T05:26:47;38.43;;;23.90;;
1589;SDS011;788;48.720;9.158;2022-10-19T05:29:14;33.10;;;22.93;;
1589;SDS011;788;48.720;9.158;2022-10-19T05:31:41;36.50;;;24.60;;
1589;SDS011;788;48.720;9.158;2022-10-19T05:34:08;39.53;;;23.87;;
1589;SDS011;788;48.720;9.158;2022-10-19T05:36:36;35.60;;;23.43;;
1589;SDS011;788;48.720;9.158;2022-10-19T05:39:05;34.70;;;22.03;;
1589;SDS011;788;48.720;9.158;2022-10-19T05:41:33;30.60;;;23.10;;
1589;SDS011;788;48.720;9.158;2022-10-19T05:44:02;34.57;;;23.67;;
1589;SDS011;788;48.720;9.158;2022-10-19T05:46:30;28.10;;;21.67;;
1589;SDS011;788;48.720;9.158;2022-10-19T05:48:58;37.83;;;23.67;;
1589;SDS011;788;48.720;9.158;2022-10-19T05:51:26;34.53;;;23.53;;
1589;SDS011;788;48.720;9.158;2022-10-19T05:57:05;25.20;;;18.13;;
1589;SDS011;788;48.720;9.158;2022-10-19T05:59:40;23.93;;;17.83;;
1589;SDS011;788;48.720;9.158;2022-10-19T06:02:08;23.40;;;17.73;;
1589;SDS011;788;48.720;9.158;2022-10-19T06:04:41;23.27;;;17.83;;
1589;SDS011;788;48.720;9.158;2022-10-19T06:07:08;22.80;;;17.90;;
1589;SDS011;788;48.720;9.158;2022-10-19T06:09:35;27.80;;;19.10;;
1589;SDS011;788;48.720;9.158;2022-10-19T06:12:02;24.10;;;18.80;;
1589;SDS011;788;48.720;9.158;2022-10-19T06:14:33;24.77;;;18.90;;
1589;SDS011;788;48.720;9.158;2022-10-19T06:17:04;32.13;;;18.30;;
1589;SDS011;788;48.720;9.158;2022-10-19T06:19:31;27.47;;;18.90;;
1589;SDS011;788;48.720;9.158;2022-10-19T06:22:00;23.33;;;17.60;;
1589;SDS011;788;48.720;9.158;2022-10-19T06:24:36;29.47;;;17.60;;
1589;SDS011;788;48.720;9.158;2022-10-19T06:27:08;22.27;;;18.17;;
1589;SDS011;788;48.720;9.158;2022-10-19T06:29:35;26.73;;;18.27;;
1589;SDS011;788;48.720;9.158;2022-10-19T06:32:13;26.27;;;17.70;;
1589;SDS011;788;48.720;9.158;2022-10-19T06:34:48;35.90;;;18.53;;
1589;SDS011;788;48.720;9.158;2022-10-19T06:37:15;25.30;;;19.87;;
1589;SDS011;788;48.720;9.158;2022-10-19T06:39:42;23.93;;;17.80;;
1589;SDS011;788;48.720;9.158;2022-10-19T06:42:09;25.47;;;16.50;;
1589;SDS011;788;48.720;9.158;2022-10-19T06:44:36;29.90;;;19.57;;
1589;SDS011;788;48.720;9.158;2022-10-19T06:50:24;19.10;;;16.80;;
1589;SDS011;788;48.720;9.158;2022-10-19T06:53:25;22.03;;;15.33;;
1589;SDS011;788;48.720;9.158;2022-10-19T06:55:55;19.03;;;15.50;;
1589;SDS011;788;48.720;9.158;2022-10-19T06:59:07;22.17;;;17.80;;
1589;SDS011;788;48.720;9.158;2022-10-19T07:01:52;19.13;;;15.93;;
1589;SDS011;788;48.720;9.158;2022-10-19T07:04:25;23.67;;;16.37;;
1589;SDS011;788;48.720;9.158;2022-10-19T07:07:04;20.43;;;15.17;;
1589;SDS011;788;48.720;9.158;2022-10-19T07:09:31;19.57;;;14.83;;
1589;SDS011;788;48.720;9.158;2022-10-19T07:14:52;19.37;;;16.00;;
1589;SDS011;788;48.720;9.158;2022-10-19T07:17:31;20.40;;;15.77;;
1589;SDS011;788;48.720;9.158;2022-10-19T07:23:11;17.80;;;14.90;;
1589;SDS011;788;48.720;9.158;2022-10-19T07:25:41;15.67;;;13.47;;
1589;SDS011;788;48.720;9.158;2022-10-19T07:28:14;18.70;;;14.33;;
1589;SDS011;788;48.720;9.158;2022-10-19T07:30:46;17.43;;;14.47;;
1589;SDS011;788;48.720;9.158;2022-10-19T07:33:26;18.90;;;15.40;;
1589;SDS011;788;48.720;9.158;2022-10-19T07:35:57;16.77;;;13.57;;
1589;SDS011;788;48.720;9.158;2022-10-19T07:38:26;15.67;;;13.00;;
1589;SDS011;788;48.720;9.158;2022-10-19T07:40:58;16.83;;;13.40;;
1589;SDS011;788;48.720;9.158;2022-10-19T07:43:26;16.13;;;14.53;;
1589;SDS011;788;48.720;9.158;2022-10-19T07:45:56;17.83;;;15.77;;
1589;SDS011;788;48.720;9.158;2022-10-19T07:48:32;16.10;;;12.73;;
1589;SDS011;788;48.720;9.158;2022-10-19T07:51:00;17.47;;;15.10;;
1589;SDS011;788;48.720;9.158;2022-10-19T07:53:29;16.77;;;14.17;;
1589;SDS011;788;48.720;9.158;2022-10-19T07:56:01;15.23;;;13.53;;
1589;SDS011;788;48.720;9.158;2022-10-19T07:58:28;15.00;;;13.37;;
1589;SDS011;788;48.720;9.158;2022-10-19T08:00:58;14.00;;;12.70;;
1589;SDS011;788;48.720;9.158;2022-10-19T08:03:25;12.07;;;10.87;;
1589;SDS011;788;48.720;9.158;2022-10-19T08:05:52;15.07;;;13.07;;
1589;SDS011;788;48.720;9.158;2022-10-19T08:08:19;15.00;;;13.20;;
1589;SDS011;788;48.720;9.158;2022-10-19T08:10:47;14.70;;;12.17;;
1589;SDS011;788;48.720;9.158;2022-10-19T08:13:14;14.00;;;11.53;;
1589;SDS011;788;48.720;9.158;2022-10-19T08:15:41;13.43;;;12.00;;
1589;SDS011;788;48.720;9.158;2022-10-19T08:18:07;14.00;;;12.50;;
1589;SDS011;788;48.720;9.158;2022-10-19T08:20:35;15.70;;;11.90;;
1589;SDS011;788;48.720;9.158;2022-10-19T08:23:02;15.60;;;13.87;;
1589;SDS011;788;48.720;9.158;2022-10-19T08:25:29;14.83;;;12.30;;
1589;SDS011;788;48.720;9.158;2022-10-19T08:27:57;13.80;;;12.37;;
1589;SDS011;788;48.720;9.158;2022-10-19T08:30:24;14.30;;;11.37;;
1589;SDS011;788;48.720;9.158;2022-10-19T08:32:50;12.93;;;11.47;;
1589;SDS011;788;48.720;9.158;2022-10-19T08:35:17;15.27;;;12.70;;
1589;SDS011;788;48.720;9.158;2022-10-19T08:37:47;16.13;;;13.27;;
1589;SDS011;788;48.720;9.158;2022-10-19T08:40:16;15.73;;;13.27;;
1589;SDS011;788;48.720;9.158;2022-10-19T08:42:49;14.50;;;12.97;;
1589;SDS011;788;48.720;9.158;2022-10-19T08:45:24;15.50;;;13.90;;
1589;SDS011;788;48.720;9.158;2022-10-19T08:47:59;13.80;;;11.83;;
1589;SDS011;788;48.720;9.158;2022-10-19T08:50:35;14.97;;;13.23;;
1589;SDS011;788;48.720;9.158;2022-10-19T08:53:06;14.10;;;12.60;;
1589;SDS011;788;48.720;9.158;2022-10-19T08:55:48;13.40;;;12.00;;
1589;SDS011;788;48.720;9.158;2022-10-19T08:58:29;12.50;;;11.30;;
1589;SDS011;788;48.720;9.158;2022-10-19T09:01:15;15.37;;;12.50;;
1589;SDS011;788;48.720;9.158;2022-10-19T09:03:57;10.43;;;9.53;;
1589;SDS011;788;48.720;9.158;2022-10-19T09:06:36;12.10;;;10.90;;
1589;SDS011;788;48.720;9.158;2022-10-19T09:09:15;11.43;;;10.23;;
1589;SDS011;788;48.720;9.158;2022-10-19T09:11:46;9.37;;;8.40;;
1589;SDS011;788;48.720;9.158;2022-10-19T09:14:17;9.23;;;8.30;;
1589;SDS011;788;48.720;9.158;2022-10-19T09:16:49;9.17;;;8.37;;
1589;SDS011;788;48.720;9.158;2022-10-19T09:19:17;8.73;;;7.90;;
1589;SDS011;788;48.720;9.158;2022-10-19T09:21:50;6.97;;;6.27;;
1589;SDS011;788;48.720;9.158;2022-10-19T09:24:27;8.63;;;7.73;;
1589;SDS011;788;48.720;9.158;2022-10-19T09:26:57;8.77;;;7.87;;
1589;SDS011;788;48.720;9.158;2022-10-19T09:29:28;8.50;;;7.70;;
1589;SDS011;788;48.720;9.158;2022-10-19T09:32:04;8.67;;;7.83;;
1589;SDS011;788;48.720;9.158;2022-10-19T09:34:38;8.13;;;7.37;;
1589;SDS011;788;48.720;9.158;2022-10-19T09:37:10;7.67;;;6.97;;
1589;SDS011;788;48.720;9.158;2022-10-19T09:39:37;9.40;;;7.87;;
1589;SDS011;788;48.720;9.158;2022-10-19T09:42:06;8.33;;;7.50;;
1589;SDS011;788;48.720;9.158;2022-10-19T09:44:35;7.13;;;6.43;;
1589;SDS011;788;48.720;9.158;2022-10-19T09:47:05;8.17;;;7.33;;
1589;SDS011;788;48.720;9.158;2022-10-19T09:49:42;8.20;;;7.50;;
1589;SDS011;788;48.720;9.158;2022-10-19T09:52:21;6.67;;;6.07;;
1589;SDS011;788;48.720;9.158;2022-10-19T09:54:57;7.30;;;6.60;;
1589;SDS011;788;48.720;9.158;2022-10-19T09:57:27;7.63;;;6.93;;
1589;SDS011;788;48.720;9.158;2022-10-19T09:59:54;9.33;;;8.40;;
1589;SDS011;788;48.720;9.158;2022-10-19T10:02:27;9.97;;;8.57;;
1589;SDS011;788;48.720;9.158;2022-10-19T10:04:56;10.87;;;9.27;;
1589;SDS011;788;48.720;9.158;2022-10-19T10:07:31;9.80;;;8.90;;
1589;SDS011;788;48.720;9.158;2022-10-19T10:10:03;9.80;;;8.90;;
1589;SDS011;788;48.720;9.158;2022-10-19T10:12:35;8.90;;;8.03;;
1589;SDS011;788;48.720;9.158;2022-10-19T10:15:05;6.80;;;6.10;;
1589;SDS011;788;48.720;9.158;2022-10-19T10:17:34;6.13;;;5.53;;
1589;SDS011;788;48.720;9.158;2022-10-19T10:20:04;6.93;;;6.40;;
1589;SDS011;788;48.720;9.158;2022-10-19T10:22:50;5.17;;;4.77;;
1589;SDS011;788;48.720;9.158;2022-10-19T10:25:22;5.10;;;4.70;;
1589;SDS011;788;48.720;9.158;2022-10-19T10:27:56;4.07;;;3.77;;
1589;SDS011;788;48.720;9.158;2022-10-19T10:30:24;3.53;;;3.23;;
1589;SDS011;788;48.720;9.158;2022-10-19T10:32:59;3.57;;;3.33;;
1589;SDS011;788;48.720;9.158;2022-10-19T10:35:28;3.63;;;3.43;;
1589;SDS011;788;48.720;9.158;2022-10-19T10:38:05;3.00;;;2.70;;
1589;SDS011;788;48.720;9.158;2022-10-19T10:40:35;5.10;;;3.87;;
1589;SDS011;788;48.720;9.158;2022-10-19T10:43:05;4.53;;;3.57;;
1589;SDS011;788;48.720;9.158;2022-10-19T10:45:36;3.70;;;3.40;;
1589;SDS011;788;48.720;9.158;2022-10-19T10:48:09;3.37;;;3.10;;
1589;SDS011;788;48.720;9.158;2022-10-19T10:50:52;3.60;;;3.30;;
1589;SDS011;788;48.720;9.158;2022-10-19T10:53:33;5.60;;;3.90;;
1589;SDS011;788;48.720;9.158;2022-10-19T10:56:03;3.93;;;3.50;;
1589;SDS011;788;48.720;9.158;2022-10-19T10:58:34;4.07;;;3.77;;
1589;SDS011;788;48.720;9.158;2022-10-19T11:01:11;3.50;;;3.20;;
1589;SDS011;788;48.720;9.158;2022-10-19T11:03:46;4.27;;;3.93;;
1589;SDS011;788;48.720;9.158;2022-10-19T11:06:18;4.23;;;3.93;;
1589;SDS011;788;48.720;9.158;2022-10-19T11:08:48;5.03;;;4.63;;
1589;SDS011;788;48.720;9.158;2022-10-19T11:11:21;4.30;;;4.00;;
1589;SDS011;788;48.720;9.158;2022-10-19T11:13:55;4.53;;;3.80;;
1589;SDS011;788;48.720;9.158;2022-10-19T11:16:25;4.50;;;3.77;;
1589;SDS011;788;48.720;9.158;2022-10-19T11:18:59;3.90;;;3.57;;
1589;SDS011;788;48.720;9.158;2022-10-19T11:21:33;5.63;;;4.93;;
1589;SDS011;788;48.720;9.158;2022-10-19T11:24:09;4.97;;;4.57;;
1589;SDS011;788;48.720;9.158;2022-10-19T11:26:49;5.50;;;4.10;;
1589;SDS011;788;48.720;9.158;2022-10-19T11:29:31;5.30;;;4.80;;
1589;SDS011;788;48.720;9.158;2022-10-19T11:32:08;5.80;;;5.20;;
1589;SDS011;788;48.720;9.158;2022-10-19T11:34:51;6.30;;;5.70;;
1589;SDS011;788;48.720;9.158;2022-10-19T11:37:29;7.77;;;5.67;;
1589;SDS011;788;48.720;9.158;2022-10-19T11:40:04;5.90;;;5.40;;
1589;SDS011;788;48.720;9.158;2022-10-19T11:42:41;5.63;;;5.13;;
1589;SDS011;788;48.720;9.158;2022-10-19T11:45:17;6.43;;;5.80;;
1589;SDS011;788;48.720;9.158;2022-10-19T11:47:56;6.40;;;5.80;;
1589;SDS011;788;48.720;9.158;2022-10-19T11:50:42;5.73;;;5.23;;
1589;SDS011;788;48.720;9.158;2022-10-19T11:53:15;6.67;;;6.07;;
1589;SDS011;788;48.720;9.158;2022-10-19T11:55:50;6.53;;;5.90;;
1589;SDS011;788;48.720;9.158;2022-10-19T11:58:28;6.27;;;5.73;;
1589;SDS011;788;48.720;9.158;2022-10-19T12:01:09;5.33;;;4.87;;
1589;SDS011;788;48.720;9.158;2022-10-19T12:03:57;5.93;;;5.20;;
1589;SDS011;788;48.720;9.158;2022-10-19T12:06:42;6.20;;;5.57;;
1589;SDS011;788;48.720;9.158;2022-10-19T12:09:19;7.40;;;5.40;;
1589;SDS011;788;48.720;9.158;2022-10-19T12:12:01;6.30;;;5.70;;
1589;SDS011;788;48.720;9.158;2022-10-19T12:14:44;6.20;;;5.60;;
1589;SDS011;788;48.720;9.158;2022-10-19T12:17:17;6.30;;;5.87;;
1589;SDS011;788;48.720;9.158;2022-10-19T12:19:49;6.70;;;6.10;;
1589;SDS011;788;48.720;9.158;2022-10-19T12:22:22;6.33;;;5.20;;
1589;SDS011;788;48.720;9.158;2022-10-19T12:24:53;5.33;;;4.93;;
1589;SDS011;788;48.720;9.158;2022-10-19T12:27:25;5.30;;;4.90;;
1589;SDS011;788;48.720;9.158;2022-10-19T12:29:55;5.67;;;5.27;;
1589;SDS011;788;48.720;9.158;2022-10-19T12:32:26;6.33;;;5.83;;
1589;SDS011;788;48.720;9.158;2022-10-19T12:34:59;7.17;;;6.57;;
1589;SDS011;788;48.720;9.158;2022-10-19T12:37:37;7.10;;;6.50;;
1589;SDS011;788;48.720;9.158;2022-10-19T12:40:07;7.20;;;6.60;;
1589;SDS011;788;48.720;9.158;2022-10-19T12:42:46;6.00;;;5.50;;
1589;SDS011;788;48.720;9.158;2022-10-19T12:45:23;6.40;;;5.80;;
1589;SDS011;788;48.720;9.158;2022-10-19T12:53:33;6.93;;;6.23;;
1589;SDS011;788;48.720;9.158;2022-10-19T12:56:03;8.00;;;7.30;;
1589;SDS011;788;48.720;9.158;2022-10-19T12:58:33;8.00;;;7.37;;
1589;SDS011;788;48.720;9.158;2022-10-19T13:01:04;7.40;;;6.77;;
1589;SDS011;788;48.720;9.158;2022-10-19T13:03:32;8.27;;;5.93;;
1589;SDS011;788;48.720;9.158;2022-10-19T13:06:02;8.10;;;7.40;;
1589;SDS011;788;48.720;9.158;2022-10-19T13:08:36;6.50;;;6.03;;
1589;SDS011;788;48.720;9.158;2022-10-19T13:11:08;7.33;;;6.63;;
1589;SDS011;788;48.720;9.158;2022-10-19T13:14:00;7.40;;;6.70;;
1589;SDS011;788;48.720;9.158;2022-10-19T13:19:31;6.23;;;5.83;;
1589;SDS011;788;48.720;9.158;2022-10-19T13:22:21;7.10;;;6.50;;
1589;SDS011;788;48.720;9.158;2022-10-19T13:27:52;7.90;;;7.20;;
1589;SDS011;788;48.720;9.158;2022-10-19T13:33:42;7.23;;;6.00;;
1589;SDS011;788;48.720;9.158;2022-10-19T13:36:11;6.17;;;5.67;;
1589;SDS011;788;48.720;9.158;2022-10-19T13:38:38;7.40;;;6.70;;
1589;SDS011;788;48.720;9.158;2022-10-19T13:41:12;7.77;;;6.87;;
1589;SDS011;788;48.720;9.158;2022-10-19T13:43:48;7.07;;;6.37;;
1589;SDS011;788;48.720;9.158;2022-10-19T13:46:41;7.33;;;6.00;;
1589;SDS011;788;48.720;9.158;2022-10-19T13:52:28;6.83;;;6.23;;
1589;SDS011;788;48.720;9.158;2022-10-19T13:55:24;6.50;;;5.60;;
1589;SDS011;788;48.720;9.158;2022-10-19T13:58:20;5.33;;;4.93;;
1589;SDS011;788;48.720;9.158;2022-10-19T14:01:21;7.03;;;6.10;;
1589;SDS011;788;48.720;9.158;2022-10-19T14:03:59;5.73;;;5.23;;
1589;SDS011;788;48.720;9.158;2022-10-19T14:06:37;6.60;;;6.00;;
1589;SDS011;788;48.720;9.158;2022-10-19T14:12:06;7.23;;;6.63;;
1589;SDS011;788;48.720;9.158;2022-10-19T14:14:40;5.47;;;5.07;;
1589;SDS011;788;48.720;9.158;2022-10-19T14:17:16;4.80;;;4.40;;
1589;SDS011;788;48.720;9.158;2022-10-19T14:19:45;5.90;;;5.40;;
1589;SDS011;788;48.720;9.158;2022-10-19T14:22:39;4.33;;;3.90;;
1589;SDS011;788;48.720;9.158;2022-10-19T14:25:31;4.50;;;4.10;;
1589;SDS011;788;48.720;9.158;2022-10-19T14:28:12;6.10;;;5.50;;
1589;SDS011;788;48.720;9.158;2022-10-19T14:34:09;7.00;;;5.30;;
1589;SDS011;788;48.720;9.158;2022-10-19T14:50:14;5.53;;;5.03;;
1589;SDS011;788;48.720;9.158;2022-10-19T14:52:51;5.30;;;4.90;;
1589;SDS011;788;48.720;9.158;2022-10-19T14:55:24;5.67;;;5.27;;
1589;SDS011;788;48.720;9.158;2022-10-19T14:57:58;7.53;;;6.13;;
1589;SDS011;788;48.720;9.158;2022-10-19T15:00:25;6.10;;;5.50;;
1589;SDS011;788;48.720;9.158;2022-10-19T15:02:57;5.07;;;4.67;;
1589;SDS011;788;48.720;9.158;2022-10-19T15:05:27;5.30;;;4.77;;
1589;SDS011;788;48.720;9.158;2022-10-19T15:07:56;5.53;;;4.90;;
1589;SDS011;788;48.720;9.158;2022-10-19T15:10:40;5.37;;;4.87;;
1589;SDS011;788;48.720;9.158;2022-10-19T15:13:16;5.10;;;4.70;;
1589;SDS011;788;48.720;9.158;2022-10-19T15:20:15;6.23;;;5.30;;
1589;SDS011;788;48.720;9.158;2022-10-19T15:32:49;7.03;;;6.40;;
1589;SDS011;788;48.720;9.158;2022-10-19T15:35:22;8.40;;;7.73;;
1589;SDS011;788;48.720;9.158;2022-10-19T15:37:58;7.30;;;6.70;;
1589;SDS011;788;48.720;9.158;2022-10-19T15:40:28;6.50;;;5.90;;
1589;SDS011;788;48.720;9.158;2022-10-19T15:43:14;6.67;;;6.07;;
1589;SDS011;788;48.720;9.158;2022-10-19T15:46:25;7.57;;;6.80;;
1589;SDS011;788;48.720;9.158;2022-10-19T15:48:56;7.33;;;6.57;;
1589;SDS011;788;48.720;9.158;2022-10-19T15:51:36;8.10;;;7.30;;
1589;SDS011;788;48.720;9.158;2022-10-19T16:09:35;6.30;;;5.80;;
1589;SDS011;788;48.720;9.158;2022-10-19T16:12:22;5.93;;;5.50;;
1589;SDS011;788;48.720;9.158;2022-10-19T16:15:40;6.73;;;6.00;;
1589;SDS011;788;48.720;9.158;2022-10-19T16:18:43;5.77;;;5.37;;
1589;SDS011;788;48.720;9.158;2022-10-19T16:21:12;7.80;;;7.13;;
1589;SDS011;788;48.720;9.158;2022-10-19T16:23:40;8.30;;;7.53;;
1589;SDS011;788;48.720;9.158;2022-10-19T16:26:08;7.10;;;6.40;;
1589;SDS011;788;48.720;9.158;2022-10-19T16:28:37;7.77;;;6.30;;
1589;SDS011;788;48.720;9.158;2022-10-19T16:41:18;10.60;;;6.50;;
1589;SDS011;788;48.720;9.158;2022-10-19T17:04:22;11.03;;;9.93;;
1589;SDS011;788;48.720;9.158;2022-10-19T17:06:52;9.97;;;7.13;;
1589;SDS011;788;48.720;9.158;2022-10-19T17:09:24;9.90;;;8.50;;
1589;SDS011;788;48.720;9.158;2022-10-19T17:11:52;16.17;;;14.77;;
1589;SDS011;788;48.720;9.158;2022-10-19T17:14:23;20.27;;;16.57;;
1589;SDS011;788;48.720;9.158;2022-10-19T17:17:10;15.37;;;13.87;;
1589;SDS011;788;48.720;9.158;2022-10-19T17:20:41;14.00;;;12.50;;
1589;SDS011;788;48.720;9.158;2022-10-19T17:33:41;13.63;;;12.33;;
1589;SDS011;788;48.720;9.158;2022-10-19T17:36:10;14.90;;;13.27;;
1589;SDS011;788;48.720;9.158;2022-10-19T17:38:38;15.07;;;13.67;;
1589;SDS011;788;48.720;9.158;2022-10-19T17:41:06;14.37;;;12.87;;
1589;SDS011;788;48.720;9.158;2022-10-19T17:43:35;16.70;;;13.60;;
1589;SDS011;788;48.720;9.158;2022-10-19T17:46:04;14.53;;;13.07;;
1589;SDS011;788;48.720;9.158;2022-10-19T17:48:33;14.93;;;13.37;;
1589;SDS011;788;48.720;9.158;2022-10-19T17:51:01;12.80;;;11.40;;
1589;SDS011;788;48.720;9.158;2022-10-19T17:53:31;13.83;;;12.40;;